sensor_id;sensor_type;location;lat;lon;timestamp;P1;durP1;ratioP1;P2;durP2;ratioP2
13171;SDS011;6651;53.200;10.432;2023-02-26T00:00:16;5.28;;;2.47;;
13171;SDS011;6651;53.200;10.432;2023-02-26T00:02:45;6.70;;;2.40;;
13171;SDS011;6651;53.200;10.432;2023-02-26T00:05:12;3.85;;;2.60;;
13171;SDS011;6651;53.200;10.432;2023-02-26T00:07:38;6.25;;;2.13;;
13171;SDS011;6651;53.200;10.432;2023-02-26T00:10:05;3.15;;;1.67;;
13171;SDS011;6651;53.200;10.432;2023-02-26T00:12:32;4.95;;;1.95;;
13171;SDS011;6651;53.200;10.432;2023-02-26T00:14:58;3.50;;;1.85;;
13171;SDS011;6651;53.200;10.432;2023-02-26T00:20:10;4.90;;;1.73;;
13171;SDS011;6651;53.200;10.432;2023-02-26T00:22:37;4.85;;;1.75;;
13171;SDS011;6651;53.200;10.432;2023-02-26T00:25:03;3.60;;;1.88;;
13171;SDS011;6651;53.200;10.432;2023-02-26T00:27:29;5.03;;;2.00;;
13171;SDS011;6651;53.200;10.432;2023-02-26T00:29:55;3.03;;;1.83;;
13171;SDS011;6651;53.200;10.432;2023-02-26T00:32:21;2.22;;;1.58;;
13171;SDS011;6651;53.200;10.432;2023-02-26T00:34:48;4.05;;;1.55;;
13171;SDS011;6651;53.200;10.432;2023-02-26T00:40:17;4.10;;;1.90;;
13171;SDS011;6651;53.200;10.432;2023-02-26T00:42:46;5.57;;;1.88;;
13171;SDS011;6651;53.200;10.432;2023-02-26T00:45:12;3.70;;;1.65;;
13171;SDS011;6651;53.200;10.432;2023-02-26T00:55:02;4.63;;;1.83;;
13171;SDS011;6651;53.200;10.432;2023-02-26T00:57:28;2.20;;;1.50;;
13171;SDS011;6651;53.200;10.432;2023-02-26T00:59:54;4.57;;;1.98;;
13171;SDS011;6651;53.200;10.432;2023-02-26T01:02:20;4.20;;;1.70;;
13171;SDS011;6651;53.200;10.432;2023-02-26T01:04:47;3.45;;;1.63;;
13171;SDS011;6651;53.200;10.432;2023-02-26T01:07:13;2.75;;;1.65;;
13171;SDS011;6651;53.200;10.432;2023-02-26T01:09:39;2.17;;;1.50;;
13171;SDS011;6651;53.200;10.432;2023-02-26T01:12:09;5.07;;;1.90;;
13171;SDS011;6651;53.200;10.432;2023-02-26T01:14:37;2.30;;;1.42;;
13171;SDS011;6651;53.200;10.432;2023-02-26T01:17:07;3.42;;;1.80;;
13171;SDS011;6651;53.200;10.432;2023-02-26T01:19:49;5.55;;;1.75;;
13171;SDS011;6651;53.200;10.432;2023-02-26T01:22:24;3.05;;;1.60;;
13171;SDS011;6651;53.200;10.432;2023-02-26T01:24:58;3.53;;;1.90;;
13171;SDS011;6651;53.200;10.432;2023-02-26T01:27:26;2.42;;;1.55;;
13171;SDS011;6651;53.200;10.432;2023-02-26T01:29:52;2.78;;;1.40;;
13171;SDS011;6651;53.200;10.432;2023-02-26T01:32:21;4.20;;;1.80;;
13171;SDS011;6651;53.200;10.432;2023-02-26T01:35:00;6.45;;;1.90;;
13171;SDS011;6651;53.200;10.432;2023-02-26T01:37:33;4.35;;;1.65;;
13171;SDS011;6651;53.200;10.432;2023-02-26T01:42:39;3.92;;;1.98;;
13171;SDS011;6651;53.200;10.432;2023-02-26T01:45:15;7.20;;;2.00;;
13171;SDS011;6651;53.200;10.432;2023-02-26T01:50:41;4.55;;;1.58;;
13171;SDS011;6651;53.200;10.432;2023-02-26T01:55:39;6.30;;;1.90;;
13171;SDS011;6651;53.200;10.432;2023-02-26T01:58:06;4.13;;;1.80;;
13171;SDS011;6651;53.200;10.432;2023-02-26T02:00:32;3.40;;;1.60;;
13171;SDS011;6651;53.200;10.432;2023-02-26T02:02:58;6.10;;;2.03;;
13171;SDS011;6651;53.200;10.432;2023-02-26T02:05:29;3.60;;;1.80;;
13171;SDS011;6651;53.200;10.432;2023-02-26T02:07:56;5.35;;;2.00;;
13171;SDS011;6651;53.200;10.432;2023-02-26T02:10:22;5.28;;;1.67;;
13171;SDS011;6651;53.200;10.432;2023-02-26T02:15:29;3.03;;;1.48;;
13171;SDS011;6651;53.200;10.432;2023-02-26T02:20:49;3.20;;;1.80;;
13171;SDS011;6651;53.200;10.432;2023-02-26T02:36:31;3.28;;;1.67;;
13171;SDS011;6651;53.200;10.432;2023-02-26T02:38:59;2.67;;;1.50;;
13171;SDS011;6651;53.200;10.432;2023-02-26T02:41:35;4.10;;;1.65;;
13171;SDS011;6651;53.200;10.432;2023-02-26T02:44:03;2.78;;;1.63;;
13171;SDS011;6651;53.200;10.432;2023-02-26T02:46:32;4.65;;;1.77;;
13171;SDS011;6651;53.200;10.432;2023-02-26T02:49:02;4.07;;;1.80;;
13171;SDS011;6651;53.200;10.432;2023-02-26T02:51:33;4.00;;;1.55;;
13171;SDS011;6651;53.200;10.432;2023-02-26T02:54:05;3.40;;;1.70;;
13171;SDS011;6651;53.200;10.432;2023-02-26T02:56:34;2.15;;;1.40;;
13171;SDS011;6651;53.200;10.432;2023-02-26T02:59:09;3.28;;;1.67;;
13171;SDS011;6651;53.200;10.432;2023-02-26T03:01:36;3.88;;;1.58;;
13171;SDS011;6651;53.200;10.432;2023-02-26T03:06:29;4.82;;;1.70;;
13171;SDS011;6651;53.200;10.432;2023-02-26T03:08:55;3.10;;;1.40;;
13171;SDS011;6651;53.200;10.432;2023-02-26T03:11:22;4.35;;;1.75;;
13171;SDS011;6651;53.200;10.432;2023-02-26T03:13:48;4.43;;;1.70;;
13171;SDS011;6651;53.200;10.432;2023-02-26T03:21:22;4.97;;;1.70;;
13171;SDS011;6651;53.200;10.432;2023-02-26T03:23:56;3.90;;;1.60;;
13171;SDS011;6651;53.200;10.432;2023-02-26T03:26:29;3.80;;;1.50;;
13171;SDS011;6651;53.200;10.432;2023-02-26T03:28:58;4.10;;;1.50;;
13171;SDS011;6651;53.200;10.432;2023-02-26T03:31:32;4.88;;;1.75;;
13171;SDS011;6651;53.200;10.432;2023-02-26T03:34:01;3.70;;;1.77;;
13171;SDS011;6651;53.200;10.432;2023-02-26T03:36:30;3.88;;;1.30;;
13171;SDS011;6651;53.200;10.432;2023-02-26T03:39:08;2.05;;;1.20;;
13171;SDS011;6651;53.200;10.432;2023-02-26T03:41:43;4.07;;;1.55;;
13171;SDS011;6651;53.200;10.432;2023-02-26T03:44:15;3.60;;;1.42;;
13171;SDS011;6651;53.200;10.432;2023-02-26T03:46:45;3.60;;;1.38;;
13171;SDS011;6651;53.200;10.432;2023-02-26T03:49:14;2.38;;;1.40;;
13171;SDS011;6651;53.200;10.432;2023-02-26T03:51:41;2.35;;;1.25;;
13171;SDS011;6651;53.200;10.432;2023-02-26T03:54:09;4.82;;;1.50;;
13171;SDS011;6651;53.200;10.432;2023-02-26T03:56:47;4.45;;;1.60;;
13171;SDS011;6651;53.200;10.432;2023-02-26T03:59:14;2.30;;;1.30;;
13171;SDS011;6651;53.200;10.432;2023-02-26T04:01:41;2.92;;;1.40;;
13171;SDS011;6651;53.200;10.432;2023-02-26T04:04:17;2.53;;;1.55;;
13171;SDS011;6651;53.200;10.432;2023-02-26T04:06:43;3.22;;;1.40;;
13171;SDS011;6651;53.200;10.432;2023-02-26T04:09:10;2.92;;;1.30;;
13171;SDS011;6651;53.200;10.432;2023-02-26T04:11:36;2.35;;;1.40;;
13171;SDS011;6651;53.200;10.432;2023-02-26T04:14:03;2.78;;;1.50;;
13171;SDS011;6651;53.200;10.432;2023-02-26T04:16:29;2.97;;;1.27;;
13171;SDS011;6651;53.200;10.432;2023-02-26T04:18:55;3.85;;;1.50;;
13171;SDS011;6651;53.200;10.432;2023-02-26T04:21:21;4.07;;;1.50;;
13171;SDS011;6651;53.200;10.432;2023-02-26T04:23:47;2.90;;;1.55;;
13171;SDS011;6651;53.200;10.432;2023-02-26T04:26:14;3.53;;;1.38;;
13171;SDS011;6651;53.200;10.432;2023-02-26T04:28:40;3.30;;;1.58;;
13171;SDS011;6651;53.200;10.432;2023-02-26T04:31:06;2.53;;;1.35;;
13171;SDS011;6651;53.200;10.432;2023-02-26T04:33:34;2.53;;;1.38;;
13171;SDS011;6651;53.200;10.432;2023-02-26T04:36:00;2.55;;;1.40;;
13171;SDS011;6651;53.200;10.432;2023-02-26T04:38:26;3.10;;;1.25;;
13171;SDS011;6651;53.200;10.432;2023-02-26T04:40:53;4.20;;;1.55;;
13171;SDS011;6651;53.200;10.432;2023-02-26T04:43:19;2.85;;;1.40;;
13171;SDS011;6651;53.200;10.432;2023-02-26T04:45:45;2.33;;;1.30;;
13171;SDS011;6651;53.200;10.432;2023-02-26T04:48:12;1.77;;;0.93;;
13171;SDS011;6651;53.200;10.432;2023-02-26T04:50:38;3.17;;;1.80;;
13171;SDS011;6651;53.200;10.432;2023-02-26T04:53:04;3.25;;;1.52;;
13171;SDS011;6651;53.200;10.432;2023-02-26T04:55:30;1.92;;;1.23;;
13171;SDS011;6651;53.200;10.432;2023-02-26T04:57:56;3.58;;;1.63;;
13171;SDS011;6651;53.200;10.432;2023-02-26T05:00:22;3.15;;;1.70;;
13171;SDS011;6651;53.200;10.432;2023-02-26T05:02:49;3.13;;;1.25;;
13171;SDS011;6651;53.200;10.432;2023-02-26T05:05:15;1.45;;;0.98;;
13171;SDS011;6651;53.200;10.432;2023-02-26T05:07:41;1.90;;;1.20;;
13171;SDS011;6651;53.200;10.432;2023-02-26T05:10:07;2.80;;;1.52;;
13171;SDS011;6651;53.200;10.432;2023-02-26T05:12:34;2.70;;;1.40;;
13171;SDS011;6651;53.200;10.432;2023-02-26T05:15:00;3.47;;;1.50;;
13171;SDS011;6651;53.200;10.432;2023-02-26T05:17:26;4.63;;;1.70;;
13171;SDS011;6651;53.200;10.432;2023-02-26T05:19:52;3.65;;;1.83;;
13171;SDS011;6651;53.200;10.432;2023-02-26T05:22:18;3.05;;;1.40;;
13171;SDS011;6651;53.200;10.432;2023-02-26T05:24:44;3.45;;;1.55;;
13171;SDS011;6651;53.200;10.432;2023-02-26T05:27:10;3.40;;;1.45;;
13171;SDS011;6651;53.200;10.432;2023-02-26T05:29:37;1.42;;;1.27;;
13171;SDS011;6651;53.200;10.432;2023-02-26T05:32:05;6.32;;;1.80;;
13171;SDS011;6651;53.200;10.432;2023-02-26T05:34:31;2.60;;;1.70;;
13171;SDS011;6651;53.200;10.432;2023-02-26T05:36:57;2.88;;;1.50;;
13171;SDS011;6651;53.200;10.432;2023-02-26T05:39:23;5.22;;;1.63;;
13171;SDS011;6651;53.200;10.432;2023-02-26T05:41:49;5.57;;;1.73;;
13171;SDS011;6651;53.200;10.432;2023-02-26T05:44:17;4.18;;;1.65;;
13171;SDS011;6651;53.200;10.432;2023-02-26T05:46:43;3.90;;;1.60;;
13171;SDS011;6651;53.200;10.432;2023-02-26T05:49:09;3.40;;;1.65;;
13171;SDS011;6651;53.200;10.432;2023-02-26T05:51:35;3.42;;;1.50;;
13171;SDS011;6651;53.200;10.432;2023-02-26T05:54:01;4.53;;;1.60;;
13171;SDS011;6651;53.200;10.432;2023-02-26T05:56:27;5.07;;;1.60;;
13171;SDS011;6651;53.200;10.432;2023-02-26T05:58:53;2.63;;;1.40;;
13171;SDS011;6651;53.200;10.432;2023-02-26T06:01:19;3.90;;;1.52;;
13171;SDS011;6651;53.200;10.432;2023-02-26T06:03:45;4.65;;;1.85;;
13171;SDS011;6651;53.200;10.432;2023-02-26T06:06:11;3.35;;;1.63;;
13171;SDS011;6651;53.200;10.432;2023-02-26T06:08:39;3.63;;;1.60;;
13171;SDS011;6651;53.200;10.432;2023-02-26T06:11:05;4.82;;;1.80;;
13171;SDS011;6651;53.200;10.432;2023-02-26T06:13:31;2.15;;;1.30;;
13171;SDS011;6651;53.200;10.432;2023-02-26T06:15:58;2.92;;;1.25;;
13171;SDS011;6651;53.200;10.432;2023-02-26T06:18:24;3.05;;;1.55;;
13171;SDS011;6651;53.200;10.432;2023-02-26T06:20:49;4.25;;;1.88;;
13171;SDS011;6651;53.200;10.432;2023-02-26T06:23:15;1.75;;;1.30;;
13171;SDS011;6651;53.200;10.432;2023-02-26T06:25:42;4.85;;;1.65;;
13171;SDS011;6651;53.200;10.432;2023-02-26T06:28:09;4.10;;;1.50;;
13171;SDS011;6651;53.200;10.432;2023-02-26T06:30:35;4.00;;;1.73;;
13171;SDS011;6651;53.200;10.432;2023-02-26T06:33:01;2.53;;;1.30;;
13171;SDS011;6651;53.200;10.432;2023-02-26T06:35:27;5.05;;;1.50;;
13171;SDS011;6651;53.200;10.432;2023-02-26T06:37:54;1.80;;;1.48;;
13171;SDS011;6651;53.200;10.432;2023-02-26T06:40:20;2.33;;;1.45;;
13171;SDS011;6651;53.200;10.432;2023-02-26T06:42:46;2.45;;;1.42;;
13171;SDS011;6651;53.200;10.432;2023-02-26T06:45:12;2.38;;;1.23;;
13171;SDS011;6651;53.200;10.432;2023-02-26T06:47:38;2.78;;;1.52;;
13171;SDS011;6651;53.200;10.432;2023-02-26T06:50:04;2.47;;;1.52;;
13171;SDS011;6651;53.200;10.432;2023-02-26T06:52:31;3.88;;;1.30;;
13171;SDS011;6651;53.200;10.432;2023-02-26T06:54:57;3.47;;;1.58;;
13171;SDS011;6651;53.200;10.432;2023-02-26T06:57:23;2.53;;;1.25;;
13171;SDS011;6651;53.200;10.432;2023-02-26T06:59:49;3.42;;;1.27;;
13171;SDS011;6651;53.200;10.432;2023-02-26T07:02:16;3.83;;;1.52;;
13171;SDS011;6651;53.200;10.432;2023-02-26T07:04:43;3.33;;;1.60;;
13171;SDS011;6651;53.200;10.432;2023-02-26T07:07:09;4.00;;;1.48;;
13171;SDS011;6651;53.200;10.432;2023-02-26T07:09:35;2.60;;;1.65;;
13171;SDS011;6651;53.200;10.432;2023-02-26T07:12:01;2.65;;;1.30;;
13171;SDS011;6651;53.200;10.432;2023-02-26T07:14:27;3.92;;;1.55;;
13171;SDS011;6651;53.200;10.432;2023-02-26T07:16:53;4.95;;;1.70;;
13171;SDS011;6651;53.200;10.432;2023-02-26T07:19:19;3.35;;;1.48;;
13171;SDS011;6651;53.200;10.432;2023-02-26T07:21:45;3.03;;;1.60;;
13171;SDS011;6651;53.200;10.432;2023-02-26T07:24:12;3.10;;;1.70;;
13171;SDS011;6651;53.200;10.432;2023-02-26T07:26:38;2.63;;;1.50;;
13171;SDS011;6651;53.200;10.432;2023-02-26T07:29:05;4.07;;;1.77;;
13171;SDS011;6651;53.200;10.432;2023-02-26T07:31:31;2.03;;;1.40;;
13171;SDS011;6651;53.200;10.432;2023-02-26T07:33:57;4.10;;;1.90;;
13171;SDS011;6651;53.200;10.432;2023-02-26T07:36:23;2.20;;;1.40;;
13171;SDS011;6651;53.200;10.432;2023-02-26T07:38:49;3.20;;;1.60;;
13171;SDS011;6651;53.200;10.432;2023-02-26T07:41:16;3.00;;;1.33;;
13171;SDS011;6651;53.200;10.432;2023-02-26T07:43:42;2.63;;;1.60;;
13171;SDS011;6651;53.200;10.432;2023-02-26T07:46:08;2.88;;;1.58;;
13171;SDS011;6651;53.200;10.432;2023-02-26T07:48:34;2.58;;;1.55;;
13171;SDS011;6651;53.200;10.432;2023-02-26T07:51:01;2.10;;;1.35;;
13171;SDS011;6651;53.200;10.432;2023-02-26T07:53:27;2.33;;;1.13;;
13171;SDS011;6651;53.200;10.432;2023-02-26T07:55:53;3.30;;;1.70;;
13171;SDS011;6651;53.200;10.432;2023-02-26T07:58:19;2.75;;;1.70;;
13171;SDS011;6651;53.200;10.432;2023-02-26T08:00:45;4.40;;;1.63;;
13171;SDS011;6651;53.200;10.432;2023-02-26T08:03:11;2.58;;;1.40;;
13171;SDS011;6651;53.200;10.432;2023-02-26T08:05:37;2.28;;;1.38;;
13171;SDS011;6651;53.200;10.432;2023-02-26T08:08:03;2.58;;;1.48;;
13171;SDS011;6651;53.200;10.432;2023-02-26T08:10:30;2.15;;;1.50;;
13171;SDS011;6651;53.200;10.432;2023-02-26T08:12:56;2.65;;;1.23;;
13171;SDS011;6651;53.200;10.432;2023-02-26T08:15:22;3.08;;;1.50;;
13171;SDS011;6651;53.200;10.432;2023-02-26T08:17:50;1.48;;;1.05;;
13171;SDS011;6651;53.200;10.432;2023-02-26T08:20:16;2.50;;;1.23;;
13171;SDS011;6651;53.200;10.432;2023-02-26T08:22:42;2.90;;;1.48;;
13171;SDS011;6651;53.200;10.432;2023-02-26T08:25:08;2.25;;;1.40;;
13171;SDS011;6651;53.200;10.432;2023-02-26T08:27:34;2.22;;;1.20;;
13171;SDS011;6651;53.200;10.432;2023-02-26T08:30:01;2.00;;;1.20;;
13171;SDS011;6651;53.200;10.432;2023-02-26T08:32:27;1.77;;;1.38;;
13171;SDS011;6651;53.200;10.432;2023-02-26T08:34:53;1.02;;;0.95;;
13171;SDS011;6651;53.200;10.432;2023-02-26T08:37:19;3.42;;;1.50;;
13171;SDS011;6651;53.200;10.432;2023-02-26T08:39:48;2.00;;;1.10;;
13171;SDS011;6651;53.200;10.432;2023-02-26T08:42:14;2.55;;;1.30;;
13171;SDS011;6651;53.200;10.432;2023-02-26T08:44:41;3.85;;;1.42;;
13171;SDS011;6651;53.200;10.432;2023-02-26T08:47:07;2.10;;;1.70;;
13171;SDS011;6651;53.200;10.432;2023-02-26T08:49:34;2.45;;;1.48;;
13171;SDS011;6651;53.200;10.432;2023-02-26T08:52:00;1.48;;;1.10;;
13171;SDS011;6651;53.200;10.432;2023-02-26T08:54:26;1.75;;;1.30;;
13171;SDS011;6651;53.200;10.432;2023-02-26T08:56:52;3.38;;;1.27;;
13171;SDS011;6651;53.200;10.432;2023-02-26T08:59:19;3.13;;;1.30;;
13171;SDS011;6651;53.200;10.432;2023-02-26T09:01:46;2.05;;;1.73;;
13171;SDS011;6651;53.200;10.432;2023-02-26T09:04:12;1.15;;;1.05;;
13171;SDS011;6651;53.200;10.432;2023-02-26T09:06:38;2.85;;;1.55;;
13171;SDS011;6651;53.200;10.432;2023-02-26T09:09:04;2.85;;;1.45;;
13171;SDS011;6651;53.200;10.432;2023-02-26T09:11:30;1.23;;;1.05;;
13171;SDS011;6651;53.200;10.432;2023-02-26T09:13:56;2.88;;;1.55;;
13171;SDS011;6651;53.200;10.432;2023-02-26T09:16:28;3.78;;;1.25;;
13171;SDS011;6651;53.200;10.432;2023-02-26T09:18:54;2.75;;;1.40;;
13171;SDS011;6651;53.200;10.432;2023-02-26T09:21:21;4.00;;;1.52;;
13171;SDS011;6651;53.200;10.432;2023-02-26T09:23:47;3.97;;;1.50;;
13171;SDS011;6651;53.200;10.432;2023-02-26T09:26:13;2.53;;;1.17;;
13171;SDS011;6651;53.200;10.432;2023-02-26T09:28:39;2.40;;;1.40;;
13171;SDS011;6651;53.200;10.432;2023-02-26T09:31:05;2.40;;;1.45;;
13171;SDS011;6651;53.200;10.432;2023-02-26T09:33:32;4.40;;;1.60;;
13171;SDS011;6651;53.200;10.432;2023-02-26T09:35:58;2.58;;;1.50;;
13171;SDS011;6651;53.200;10.432;2023-02-26T09:38:24;1.98;;;1.73;;
13171;SDS011;6651;53.200;10.432;2023-02-26T09:40:55;3.03;;;1.50;;
13171;SDS011;6651;53.200;10.432;2023-02-26T09:48:45;1.67;;;1.45;;
13171;SDS011;6651;53.200;10.432;2023-02-26T09:51:14;3.10;;;1.40;;
13171;SDS011;6651;53.200;10.432;2023-02-26T09:53:41;5.10;;;1.20;;
13171;SDS011;6651;53.200;10.432;2023-02-26T09:56:23;1.92;;;1.42;;
13171;SDS011;6651;53.200;10.432;2023-02-26T09:58:50;3.22;;;1.20;;
13171;SDS011;6651;53.200;10.432;2023-02-26T10:04:05;2.20;;;1.50;;
13171;SDS011;6651;53.200;10.432;2023-02-26T10:09:15;2.03;;;1.23;;
13171;SDS011;6651;53.200;10.432;2023-02-26T10:11:46;1.77;;;1.38;;
13171;SDS011;6651;53.200;10.432;2023-02-26T10:14:15;2.88;;;1.45;;
13171;SDS011;6651;53.200;10.432;2023-02-26T10:16:44;2.85;;;1.27;;
13171;SDS011;6651;53.200;10.432;2023-02-26T10:19:13;3.08;;;1.77;;
13171;SDS011;6651;53.200;10.432;2023-02-26T10:22:27;3.55;;;1.60;;
13171;SDS011;6651;53.200;10.432;2023-02-26T10:24:37;2.42;;;1.98;;
13171;SDS011;6651;53.200;10.432;2023-02-26T10:27:05;3.05;;;1.95;;
13171;SDS011;6651;53.200;10.432;2023-02-26T10:29:36;1.98;;;1.40;;
13171;SDS011;6651;53.200;10.432;2023-02-26T10:34:35;1.88;;;1.30;;
13171;SDS011;6651;53.200;10.432;2023-02-26T10:39:51;3.22;;;1.33;;
13171;SDS011;6651;53.200;10.432;2023-02-26T10:42:20;2.95;;;1.25;;
13171;SDS011;6651;53.200;10.432;2023-02-26T10:52:13;1.90;;;1.30;;
13171;SDS011;6651;53.200;10.432;2023-02-26T10:54:44;2.80;;;1.42;;
13171;SDS011;6651;53.200;10.432;2023-02-26T10:57:20;3.20;;;1.40;;
13171;SDS011;6651;53.200;10.432;2023-02-26T10:59:47;2.60;;;1.30;;
13171;SDS011;6651;53.200;10.432;2023-02-26T11:04:59;1.52;;;0.88;;
13171;SDS011;6651;53.200;10.432;2023-02-26T11:07:25;2.00;;;1.40;;
13171;SDS011;6651;53.200;10.432;2023-02-26T11:09:53;3.65;;;1.42;;
13171;SDS011;6651;53.200;10.432;2023-02-26T11:12:19;1.33;;;1.23;;
13171;SDS011;6651;53.200;10.432;2023-02-26T11:14:48;1.27;;;1.17;;
13171;SDS011;6651;53.200;10.432;2023-02-26T11:17:18;1.90;;;1.23;;
13171;SDS011;6651;53.200;10.432;2023-02-26T11:19:55;2.38;;;1.20;;
13171;SDS011;6651;53.200;10.432;2023-02-26T11:22:21;1.65;;;0.95;;
13171;SDS011;6651;53.200;10.432;2023-02-26T11:24:49;2.30;;;0.88;;
13171;SDS011;6651;53.200;10.432;2023-02-26T11:27:21;2.05;;;1.13;;
13171;SDS011;6651;53.200;10.432;2023-02-26T11:29:48;1.33;;;1.23;;
13171;SDS011;6651;53.200;10.432;2023-02-26T11:32:21;1.92;;;0.98;;
13171;SDS011;6651;53.200;10.432;2023-02-26T11:34:49;2.35;;;1.23;;
13171;SDS011;6651;53.200;10.432;2023-02-26T11:37:22;2.20;;;1.70;;
13171;SDS011;6651;53.200;10.432;2023-02-26T11:39:54;1.48;;;1.30;;
13171;SDS011;6651;53.200;10.432;2023-02-26T11:42:20;2.33;;;1.05;;
13171;SDS011;6651;53.200;10.432;2023-02-26T11:44:46;2.75;;;0.93;;
13171;SDS011;6651;53.200;10.432;2023-02-26T11:47:31;1.55;;;0.90;;
13171;SDS011;6651;53.200;10.432;2023-02-26T11:50:02;2.83;;;0.90;;
13171;SDS011;6651;53.200;10.432;2023-02-26T11:52:34;2.83;;;0.90;;
13171;SDS011;6651;53.200;10.432;2023-02-26T11:55:01;2.97;;;1.13;;
13171;SDS011;6651;53.200;10.432;2023-02-26T11:57:28;3.80;;;0.90;;
13171;SDS011;6651;53.200;10.432;2023-02-26T11:59:56;1.58;;;0.98;;
13171;SDS011;6651;53.200;10.432;2023-02-26T12:02:23;1.45;;;0.90;;
13171;SDS011;6651;53.200;10.432;2023-02-26T12:04:52;0.95;;;0.73;;
13171;SDS011;6651;53.200;10.432;2023-02-26T12:07:19;1.27;;;0.80;;
13171;SDS011;6651;53.200;10.432;2023-02-26T12:09:46;3.58;;;1.10;;
13171;SDS011;6651;53.200;10.432;2023-02-26T12:12:28;1.20;;;0.80;;
13171;SDS011;6651;53.200;10.432;2023-02-26T12:38:23;0.60;;;0.60;;
13171;SDS011;6651;53.200;10.432;2023-02-26T12:43:24;1.50;;;0.63;;
13171;SDS011;6651;53.200;10.432;2023-02-26T13:16:53;1.50;;;0.70;;
13171;SDS011;6651;53.200;10.432;2023-02-26T13:22:36;1.88;;;0.90;;
13171;SDS011;6651;53.200;10.432;2023-02-26T13:25:04;3.33;;;1.00;;
13171;SDS011;6651;53.200;10.432;2023-02-26T13:27:35;1.58;;;1.00;;
13171;SDS011;6651;53.200;10.432;2023-02-26T13:32:31;2.20;;;1.08;;
13171;SDS011;6651;53.200;10.432;2023-02-26T13:35:00;1.05;;;0.75;;
13171;SDS011;6651;53.200;10.432;2023-02-26T13:50:31;3.33;;;1.20;;
13171;SDS011;6651;53.200;10.432;2023-02-26T13:53:03;1.85;;;1.20;;
13171;SDS011;6651;53.200;10.432;2023-02-26T13:55:42;1.10;;;0.90;;
13171;SDS011;6651;53.200;10.432;2023-02-26T13:58:16;3.00;;;1.10;;
13171;SDS011;6651;53.200;10.432;2023-02-26T14:00:46;2.10;;;1.00;;
13171;SDS011;6651;53.200;10.432;2023-02-26T14:03:29;3.10;;;1.80;;
13171;SDS011;6651;53.200;10.432;2023-02-26T14:08:44;1.70;;;1.40;;
13171;SDS011;6651;53.200;10.432;2023-02-26T14:13:42;2.78;;;1.27;;
13171;SDS011;6651;53.200;10.432;2023-02-26T14:16:28;2.33;;;1.10;;
13171;SDS011;6651;53.200;10.432;2023-02-26T14:19:15;2.88;;;1.20;;
13171;SDS011;6651;53.200;10.432;2023-02-26T14:24:21;2.35;;;1.67;;
13171;SDS011;6651;53.200;10.432;2023-02-26T14:27:03;3.92;;;1.98;;
13171;SDS011;6651;53.200;10.432;2023-02-26T14:29:41;4.00;;;1.40;;
13171;SDS011;6651;53.200;10.432;2023-02-26T14:32:15;2.55;;;1.30;;
13171;SDS011;6651;53.200;10.432;2023-02-26T14:34:48;1.80;;;1.45;;
13171;SDS011;6651;53.200;10.432;2023-02-26T14:37:16;2.53;;;1.23;;
13171;SDS011;6651;53.200;10.432;2023-02-26T14:40:03;3.38;;;1.60;;
13171;SDS011;6651;53.200;10.432;2023-02-26T14:42:39;4.72;;;1.92;;
13171;SDS011;6651;53.200;10.432;2023-02-26T14:47:36;2.88;;;1.65;;
13171;SDS011;6651;53.200;10.432;2023-02-26T14:50:02;2.40;;;1.65;;
13171;SDS011;6651;53.200;10.432;2023-02-26T14:52:34;2.97;;;1.33;;
13171;SDS011;6651;53.200;10.432;2023-02-26T14:55:19;3.55;;;1.80;;
13171;SDS011;6651;53.200;10.432;2023-02-26T15:00:51;3.42;;;1.60;;
13171;SDS011;6651;53.200;10.432;2023-02-26T15:06:45;4.07;;;1.58;;
13171;SDS011;6651;53.200;10.432;2023-02-26T15:19:00;3.63;;;1.25;;
13171;SDS011;6651;53.200;10.432;2023-02-26T15:24:00;2.65;;;1.40;;
13171;SDS011;6651;53.200;10.432;2023-02-26T15:26:30;1.85;;;1.30;;
13171;SDS011;6651;53.200;10.432;2023-02-26T15:28:57;2.78;;;1.30;;
13171;SDS011;6651;53.200;10.432;2023-02-26T15:31:29;5.43;;;1.73;;
13171;SDS011;6651;53.200;10.432;2023-02-26T15:33:56;3.90;;;1.98;;
13171;SDS011;6651;53.200;10.432;2023-02-26T15:36:22;4.63;;;2.60;;
13171;SDS011;6651;53.200;10.432;2023-02-26T15:38:56;2.85;;;1.67;;
13171;SDS011;6651;53.200;10.432;2023-02-26T15:41:26;2.10;;;0.90;;
13171;SDS011;6651;53.200;10.432;2023-02-26T15:44:01;4.95;;;1.75;;
13171;SDS011;6651;53.200;10.432;2023-02-26T15:46:34;4.55;;;1.30;;
13171;SDS011;6651;53.200;10.432;2023-02-26T15:49:02;1.30;;;1.05;;
13171;SDS011;6651;53.200;10.432;2023-02-26T15:51:29;4.50;;;1.92;;
13171;SDS011;6651;53.200;10.432;2023-02-26T15:53:55;5.18;;;2.05;;
13171;SDS011;6651;53.200;10.432;2023-02-26T15:56:27;2.63;;;1.60;;
13171;SDS011;6651;53.200;10.432;2023-02-26T15:59:05;2.47;;;1.67;;
13171;SDS011;6651;53.200;10.432;2023-02-26T16:01:32;3.63;;;1.90;;
13171;SDS011;6651;53.200;10.432;2023-02-26T16:04:00;2.90;;;1.35;;
13171;SDS011;6651;53.200;10.432;2023-02-26T16:06:27;2.22;;;1.38;;
13171;SDS011;6651;53.200;10.432;2023-02-26T16:08:54;3.17;;;1.60;;
13171;SDS011;6651;53.200;10.432;2023-02-26T16:11:22;3.88;;;1.65;;
13171;SDS011;6651;53.200;10.432;2023-02-26T16:13:49;2.53;;;1.55;;
13171;SDS011;6651;53.200;10.432;2023-02-26T16:16:17;3.35;;;1.70;;
13171;SDS011;6651;53.200;10.432;2023-02-26T16:18:46;3.47;;;1.88;;
13171;SDS011;6651;53.200;10.432;2023-02-26T16:21:20;3.15;;;1.40;;
13171;SDS011;6651;53.200;10.432;2023-02-26T16:23:47;3.40;;;1.52;;
13171;SDS011;6651;53.200;10.432;2023-02-26T16:26:19;3.25;;;1.60;;
13171;SDS011;6651;53.200;10.432;2023-02-26T16:28:46;3.88;;;1.70;;
13171;SDS011;6651;53.200;10.432;2023-02-26T16:31:15;1.73;;;1.48;;
13171;SDS011;6651;53.200;10.432;2023-02-26T16:33:42;3.80;;;1.60;;
13171;SDS011;6651;53.200;10.432;2023-02-26T16:36:14;2.50;;;1.80;;
13171;SDS011;6651;53.200;10.432;2023-02-26T16:39:25;4.72;;;2.03;;
13171;SDS011;6651;53.200;10.432;2023-02-26T16:41:35;3.58;;;2.20;;
13171;SDS011;6651;53.200;10.432;2023-02-26T16:46:46;2.55;;;1.67;;
13171;SDS011;6651;53.200;10.432;2023-02-26T16:51:38;3.67;;;2.20;;
13171;SDS011;6651;53.200;10.432;2023-02-26T16:54:06;4.15;;;2.47;;
13171;SDS011;6651;53.200;10.432;2023-02-26T16:56:37;4.35;;;2.20;;
13171;SDS011;6651;53.200;10.432;2023-02-26T16:59:10;5.50;;;2.10;;
13171;SDS011;6651;53.200;10.432;2023-02-26T17:01:38;3.97;;;2.20;;
13171;SDS011;6651;53.200;10.432;2023-02-26T17:04:05;6.05;;;2.28;;
13171;SDS011;6651;53.200;10.432;2023-02-26T17:06:32;5.75;;;2.50;;
13171;SDS011;6651;53.200;10.432;2023-02-26T17:09:04;5.18;;;2.90;;
13171;SDS011;6651;53.200;10.432;2023-02-26T17:11:36;5.50;;;3.00;;
13171;SDS011;6651;53.200;10.432;2023-02-26T17:16:39;4.30;;;2.90;;
13171;SDS011;6651;53.200;10.432;2023-02-26T17:19:05;4.45;;;2.60;;
13171;SDS011;6651;53.200;10.432;2023-02-26T17:21:33;4.70;;;2.63;;
13171;SDS011;6651;53.200;10.432;2023-02-26T17:24:00;3.25;;;2.10;;
13171;SDS011;6651;53.200;10.432;2023-02-26T17:26:26;3.45;;;2.10;;
13171;SDS011;6651;53.200;10.432;2023-02-26T17:28:53;4.40;;;2.30;;
13171;SDS011;6651;53.200;10.432;2023-02-26T17:31:19;4.93;;;2.42;;
13171;SDS011;6651;53.200;10.432;2023-02-26T17:33:45;5.50;;;3.15;;
13171;SDS011;6651;53.200;10.432;2023-02-26T17:36:12;6.20;;;3.13;;
13171;SDS011;6651;53.200;10.432;2023-02-26T17:38:39;6.10;;;3.35;;
13171;SDS011;6651;53.200;10.432;2023-02-26T17:41:10;4.50;;;2.70;;
13171;SDS011;6651;53.200;10.432;2023-02-26T17:43:37;6.68;;;3.67;;
13171;SDS011;6651;53.200;10.432;2023-02-26T17:46:03;5.57;;;3.10;;
13171;SDS011;6651;53.200;10.432;2023-02-26T17:48:29;5.93;;;3.10;;
13171;SDS011;6651;53.200;10.432;2023-02-26T17:50:55;6.93;;;3.70;;
13171;SDS011;6651;53.200;10.432;2023-02-26T17:53:23;7.13;;;3.30;;
13171;SDS011;6651;53.200;10.432;2023-02-26T17:55:57;8.88;;;5.28;;
13171;SDS011;6651;53.200;10.432;2023-02-26T17:58:31;6.32;;;3.38;;
13171;SDS011;6651;53.200;10.432;2023-02-26T18:00:58;5.32;;;2.92;;